createdAt,value
2017-03-10T00:00:48.808Z,0
2017-03-10T00:01:49.204Z,0
2017-03-10T00:02:49.182Z,0
2017-03-10T00:03:48.773Z,0
2017-03-10T00:04:49.127Z,0
2017-03-10T00:05:49.132Z,0
2017-03-10T00:06:49.090Z,0
2017-03-10T00:07:49.081Z,0
2017-03-10T00:08:48.673Z,0
2017-03-10T00:09:49.039Z,0
2017-03-10T00:10:48.639Z,0
2017-03-10T00:11:49.003Z,0
2017-03-10T00:12:48.986Z,0
2017-03-10T00:13:48.567Z,0
2017-03-10T00:14:48.550Z,0
2017-03-10T00:15:48.981Z,0
2017-03-10T00:16:48.931Z,0
2017-03-10T00:17:48.499Z,0
2017-03-10T00:18:48.890Z,0
2017-03-10T00:19:48.872Z,0
2017-03-10T00:20:48.844Z,0
2017-03-10T00:21:48.826Z,0
2017-03-10T00:22:48.415Z,0
2017-03-10T00:23:48.799Z,0
2017-03-10T00:24:48.781Z,0
2017-03-10T00:25:48.753Z,0
2017-03-10T00:26:48.737Z,0
2017-03-10T00:27:48.722Z,0
2017-03-10T00:28:48.693Z,0
2017-03-10T00:29:48.298Z,0
2017-03-10T00:30:48.682Z,0
2017-03-10T00:31:48.652Z,0
2017-03-10T00:32:48.622Z,0
2017-03-10T00:33:48.619Z,0
2017-03-10T00:34:48.201Z,0
2017-03-10T00:35:48.587Z,0
2017-03-10T00:36:48.158Z,0
2017-03-10T00:37:48.802Z,0
2017-03-10T00:38:48.571Z,0
2017-03-10T00:39:48.501Z,0
2017-03-10T00:40:48.492Z,0
2017-03-10T00:41:48.073Z,0
2017-03-10T00:42:48.466Z,0
2017-03-10T00:43:48.427Z,0
2017-03-10T00:44:48.412Z,0
2017-03-10T00:45:47.998Z,0
2017-03-10T00:46:48.396Z,0
2017-03-10T00:47:48.390Z,0
2017-03-10T00:48:47.955Z,0
2017-03-10T00:49:48.338Z,0
2017-03-10T00:50:48.306Z,0
2017-03-10T00:51:48.298Z,0
2017-03-10T00:52:47.886Z,0
2017-03-10T00:53:48.254Z,0
2017-03-10T00:54:48.243Z,0
2017-03-10T00:55:48.229Z,0
2017-03-10T00:56:47.801Z,0
2017-03-10T00:57:47.785Z,0
2017-03-10T00:58:48.164Z,0
2017-03-10T00:59:48.163Z,0
2017-03-10T01:00:48.143Z,0
2017-03-10T01:01:48.105Z,0
2017-03-10T01:02:47.704Z,0
2017-03-10T01:03:48.079Z,0
2017-03-10T01:04:48.267Z,0
2017-03-10T01:05:48.043Z,0
2017-03-10T01:06:48.042Z,0
2017-03-10T01:07:48.013Z,0
2017-03-10T01:08:47.991Z,0
2017-03-10T01:09:47.968Z,0
2017-03-10T01:10:47.952Z,0
2017-03-10T01:11:47.961Z,0
2017-03-10T01:12:47.921Z,0
2017-03-10T01:13:47.897Z,0
2017-03-10T01:14:47.916Z,0
2017-03-10T01:15:47.881Z,0
2017-03-10T01:16:47.448Z,0
2017-03-10T01:17:47.442Z,0
2017-03-10T01:18:47.826Z,0
2017-03-10T01:19:47.783Z,0
2017-03-10T01:20:47.384Z,0
2017-03-10T01:21:47.756Z,0
2017-03-10T01:22:47.774Z,0
2017-03-10T01:23:47.328Z,0
2017-03-10T01:24:47.715Z,0
2017-03-10T01:25:47.692Z,0
2017-03-10T01:26:47.678Z,0
2017-03-10T01:27:46.867Z,0
2017-03-10T01:28:47.253Z,0
2017-03-10T01:29:47.232Z,0
2017-03-10T01:30:47.611Z,0
2017-03-10T01:31:47.609Z,0
2017-03-10T01:32:47.572Z,0
2017-03-10T01:33:47.553Z,0
2017-03-10T01:34:47.563Z,0
2017-03-10T01:35:47.517Z,0
2017-03-10T01:36:47.104Z,0
2017-03-10T01:37:47.515Z,0
2017-03-10T01:38:47.456Z,0
2017-03-10T01:39:47.474Z,0
2017-03-10T01:40:47.012Z,0
2017-03-10T01:41:47.441Z,0
2017-03-10T01:42:47.392Z,0
2017-03-10T01:43:48.380Z,0
2017-03-10T01:44:47.344Z,0
2017-03-10T01:45:47.332Z,0
2017-03-10T01:46:47.318Z,0
2017-03-10T01:47:47.291Z,0
2017-03-10T01:48:47.278Z,0
2017-03-10T01:49:47.272Z,0
2017-03-10T01:50:47.252Z,0
2017-03-10T01:51:47.235Z,0
2017-03-10T01:52:47.222Z,0
2017-03-10T01:53:47.178Z,0
2017-03-10T01:54:47.164Z,0
2017-03-10T01:55:47.141Z,0
2017-03-10T01:56:46.746Z,0
2017-03-10T01:57:47.113Z,0
2017-03-10T01:58:47.113Z,0
2017-03-10T01:59:47.075Z,0
2017-03-10T02:00:47.096Z,0
2017-03-10T02:01:47.039Z,0
2017-03-10T02:02:47.048Z,0
2017-03-10T02:03:47.000Z,0
2017-03-10T02:04:46.997Z,0
2017-03-10T02:05:46.583Z,0
2017-03-10T02:06:46.945Z,0
2017-03-10T02:07:46.925Z,0
2017-03-10T02:08:46.914Z,0
2017-03-10T02:09:46.904Z,0
2017-03-10T02:10:46.883Z,0
2017-03-10T02:11:46.861Z,0
2017-03-10T02:12:46.446Z,0
2017-03-10T02:13:46.823Z,0
2017-03-10T02:14:46.796Z,0
2017-03-10T02:15:46.787Z,0
2017-03-10T02:16:46.764Z,0
2017-03-10T02:17:46.750Z,0
2017-03-10T02:18:46.729Z,0
2017-03-10T02:19:46.716Z,0
2017-03-10T02:20:46.703Z,0
2017-03-10T02:21:46.692Z,0
2017-03-10T02:22:46.677Z,0
2017-03-10T02:23:46.641Z,0
2017-03-10T02:24:46.233Z,0
2017-03-10T02:25:46.630Z,0
2017-03-10T02:26:46.601Z,0
2017-03-10T02:27:46.571Z,0
2017-03-10T02:28:46.549Z,0
2017-03-10T02:29:46.531Z,0
2017-03-10T02:30:46.527Z,0
2017-03-10T02:31:46.506Z,0
2017-03-10T02:32:46.475Z,0
2017-03-10T02:33:46.457Z,0
2017-03-10T02:34:46.443Z,0
2017-03-10T02:35:46.420Z,0
2017-03-10T02:36:46.405Z,0
2017-03-10T02:37:46.387Z,0
2017-03-10T02:38:46.362Z,0
2017-03-10T02:39:46.362Z,0
2017-03-10T02:40:45.929Z,0
2017-03-10T02:41:46.320Z,0
2017-03-10T02:42:45.896Z,0
2017-03-10T02:43:46.280Z,0
2017-03-10T02:44:46.266Z,0
2017-03-10T02:45:46.267Z,0
2017-03-10T02:46:46.240Z,0
2017-03-10T02:47:46.212Z,0
2017-03-10T02:48:46.190Z,0
2017-03-10T02:49:46.178Z,0
2017-03-10T02:50:46.158Z,0
2017-03-10T02:51:46.142Z,0
2017-03-10T02:52:46.126Z,0
2017-03-10T02:53:46.086Z,0
2017-03-10T02:54:45.681Z,0
2017-03-10T02:55:46.086Z,0
2017-03-10T02:56:46.041Z,0
2017-03-10T02:57:46.024Z,0
2017-03-10T02:58:46.063Z,0
2017-03-10T02:59:45.599Z,0
2017-03-10T03:00:45.982Z,0
2017-03-10T03:01:45.960Z,0
2017-03-10T03:02:45.924Z,0
2017-03-10T03:03:45.923Z,0
2017-03-10T03:04:45.308Z,0
2017-03-10T03:05:45.874Z,0
2017-03-10T03:06:45.895Z,0
2017-03-10T03:07:45.443Z,0
2017-03-10T03:08:45.839Z,0
2017-03-10T03:09:45.811Z,0
2017-03-10T03:10:45.814Z,0
2017-03-10T03:11:45.764Z,0
2017-03-10T03:12:45.355Z,0
2017-03-10T03:13:45.730Z,0
2017-03-10T03:14:45.341Z,0
2017-03-10T03:15:45.710Z,0
2017-03-10T03:16:45.280Z,0
2017-03-10T03:17:45.667Z,0
2017-03-10T03:18:45.659Z,0
2017-03-10T03:19:45.230Z,0
2017-03-10T03:20:45.606Z,0
2017-03-10T03:21:45.586Z,0
2017-03-10T03:22:45.587Z,0
2017-03-10T03:23:45.564Z,0
2017-03-10T03:24:45.566Z,0
2017-03-10T03:25:45.120Z,0
2017-03-10T03:26:45.514Z,0
2017-03-10T03:27:45.476Z,0
2017-03-10T03:28:45.470Z,0
2017-03-10T03:29:45.444Z,0
2017-03-10T03:30:45.433Z,0
2017-03-10T03:31:45.402Z,0
2017-03-10T03:32:45.381Z,0
2017-03-10T03:33:45.377Z,0
2017-03-10T03:34:45.336Z,0
2017-03-10T03:35:45.366Z,0
2017-03-10T03:36:45.366Z,0
2017-03-10T03:37:45.332Z,0
2017-03-10T03:38:45.287Z,0
2017-03-10T03:39:45.263Z,0
2017-03-10T03:40:45.264Z,0
2017-03-10T03:41:45.213Z,0
2017-03-10T03:42:45.211Z,0
2017-03-10T03:43:45.214Z,0
2017-03-10T03:44:45.172Z,0
2017-03-10T03:45:45.151Z,0
2017-03-10T03:46:44.362Z,0
2017-03-10T03:47:45.103Z,0
2017-03-10T03:48:45.106Z,0
2017-03-10T03:49:45.071Z,0
2017-03-10T03:50:45.060Z,0
2017-03-10T03:51:45.081Z,0
2017-03-10T03:52:45.019Z,0
2017-03-10T03:53:45.002Z,0
2017-03-10T03:54:44.636Z,0
2017-03-10T03:55:44.994Z,0
2017-03-10T03:56:44.955Z,0
2017-03-10T03:57:44.950Z,0
2017-03-10T03:58:44.942Z,0
2017-03-10T03:59:44.888Z,0
2017-03-10T04:00:44.874Z,0
2017-03-10T04:01:44.466Z,0
2017-03-10T04:02:44.837Z,0
2017-03-10T04:03:44.824Z,0
2017-03-10T04:04:44.400Z,0
2017-03-10T04:05:44.775Z,0
2017-03-10T04:06:44.782Z,0
2017-03-10T04:07:44.379Z,0
2017-03-10T04:08:44.739Z,0
2017-03-10T04:09:44.706Z,0
2017-03-10T04:10:44.699Z,0
2017-03-10T04:11:44.686Z,0
2017-03-10T04:12:44.658Z,0
2017-03-10T04:13:44.655Z,0
2017-03-10T04:14:44.609Z,0
2017-03-10T04:15:44.615Z,0
2017-03-10T04:16:44.217Z,0
2017-03-10T04:17:44.166Z,0
2017-03-10T04:18:44.535Z,0
2017-03-10T04:19:44.523Z,0
2017-03-10T04:20:44.507Z,0
2017-03-10T04:21:44.469Z,0
2017-03-10T04:22:44.085Z,0
2017-03-10T04:23:44.055Z,0
2017-03-10T04:24:44.444Z,0
2017-03-10T04:25:44.031Z,0
2017-03-10T04:26:44.401Z,0
2017-03-10T04:27:44.079Z,0
2017-03-10T04:28:44.376Z,0
2017-03-10T04:29:43.947Z,0
2017-03-10T04:30:44.375Z,0
2017-03-10T04:31:43.914Z,0
2017-03-10T04:32:43.895Z,0
2017-03-10T04:33:44.293Z,0
2017-03-10T04:34:44.291Z,0
2017-03-10T04:35:44.276Z,0
2017-03-10T04:36:43.823Z,0
2017-03-10T04:37:44.190Z,0
2017-03-10T04:38:43.828Z,0
2017-03-10T04:39:43.755Z,0
2017-03-10T04:40:44.140Z,0
2017-03-10T04:41:44.109Z,0
2017-03-10T04:42:44.124Z,0
2017-03-10T04:43:44.094Z,0
2017-03-10T04:44:44.095Z,0
2017-03-10T04:45:43.673Z,0
2017-03-10T04:46:44.037Z,0
2017-03-10T04:47:44.025Z,0
2017-03-10T04:48:43.993Z,0
2017-03-10T04:49:43.979Z,0
2017-03-10T04:50:43.955Z,0
2017-03-10T04:51:43.935Z,0
2017-03-10T04:52:43.915Z,0
2017-03-10T04:53:43.893Z,0
2017-03-10T04:54:43.870Z,0
2017-03-10T04:55:43.856Z,0
2017-03-10T04:56:43.845Z,0
2017-03-10T04:57:43.480Z,0
2017-03-10T04:58:43.825Z,0
2017-03-10T04:59:43.389Z,0
2017-03-10T05:00:43.816Z,0
2017-03-10T05:01:43.756Z,0
2017-03-10T05:02:43.331Z,0
2017-03-10T05:03:43.716Z,0
2017-03-10T05:04:43.490Z,0
2017-03-10T05:05:43.670Z,0
2017-03-10T05:06:43.649Z,0
2017-03-10T05:07:43.636Z,0
2017-03-10T05:08:42.824Z,0
2017-03-10T05:09:43.604Z,0
2017-03-10T05:10:43.584Z,0
2017-03-10T05:11:43.555Z,0
2017-03-10T05:12:43.202Z,0
2017-03-10T05:13:43.517Z,0
2017-03-10T05:14:43.131Z,0
2017-03-10T05:15:43.477Z,0
2017-03-10T05:16:43.467Z,0
2017-03-10T05:17:43.436Z,0
2017-03-10T05:18:43.457Z,0
2017-03-10T05:19:43.411Z,0
2017-03-10T05:20:43.446Z,0
2017-03-10T05:21:42.967Z,0
2017-03-10T05:22:43.343Z,0
2017-03-10T05:23:43.322Z,0
2017-03-10T05:24:43.302Z,0
2017-03-10T05:25:42.901Z,0
2017-03-10T05:26:42.872Z,4
2017-03-10T05:27:43.255Z,4
2017-03-10T05:28:43.240Z,0
2017-03-10T05:29:43.219Z,4
2017-03-10T05:30:43.207Z,4
2017-03-10T05:31:43.181Z,4
2017-03-10T05:32:43.165Z,4
2017-03-10T05:33:42.742Z,8
2017-03-10T05:34:43.127Z,8
2017-03-10T05:35:43.109Z,12
2017-03-10T05:36:42.308Z,12
2017-03-10T05:37:42.301Z,16
2017-03-10T05:38:42.652Z,16
2017-03-10T05:39:42.233Z,20
2017-03-10T05:40:42.595Z,24
2017-03-10T05:41:42.988Z,28
2017-03-10T05:42:42.978Z,32
2017-03-10T05:43:42.966Z,40
2017-03-10T05:44:42.930Z,44
2017-03-10T05:45:42.899Z,52
2017-03-10T05:46:42.904Z,60
2017-03-10T05:47:42.113Z,72
2017-03-10T05:48:42.439Z,80
2017-03-10T05:49:42.048Z,88
2017-03-10T05:50:42.426Z,100
2017-03-10T05:51:42.808Z,116
2017-03-10T05:52:42.375Z,128
2017-03-10T05:53:42.738Z,144
2017-03-10T05:54:42.789Z,160
2017-03-10T05:55:42.377Z,176
2017-03-10T05:56:42.686Z,196
2017-03-10T05:57:42.678Z,212
2017-03-10T05:58:42.648Z,232
2017-03-10T05:59:42.625Z,256
2017-03-10T06:00:42.617Z,276
2017-03-10T06:01:42.609Z,300
2017-03-10T06:02:42.580Z,324
2017-03-10T06:03:42.161Z,348
2017-03-10T06:04:42.148Z,376
2017-03-10T06:05:42.575Z,400
2017-03-10T06:06:42.513Z,428
2017-03-10T06:07:41.686Z,448
2017-03-10T06:08:42.470Z,476
2017-03-10T06:09:42.429Z,508
2017-03-10T06:10:42.040Z,532
2017-03-10T06:11:42.009Z,564
2017-03-10T06:12:41.986Z,592
2017-03-10T06:13:42.389Z,620
2017-03-10T06:14:41.937Z,652
2017-03-10T06:15:41.930Z,680
2017-03-10T06:16:42.299Z,708
2017-03-10T06:17:42.280Z,736
2017-03-10T06:18:42.310Z,768
2017-03-10T06:19:42.228Z,800
2017-03-10T06:20:42.218Z,832
2017-03-10T06:21:42.197Z,868
2017-03-10T06:22:42.175Z,912
2017-03-10T06:23:42.165Z,1004
2017-03-10T06:24:42.151Z,996
2017-03-10T06:25:42.123Z,1044
2017-03-10T06:26:41.722Z,1040
2017-03-10T06:27:42.117Z,1052
2017-03-10T06:28:41.667Z,1068
2017-03-10T06:29:41.638Z,1076
2017-03-10T06:30:42.024Z,1100
2017-03-10T06:31:42.035Z,1200
2017-03-10T06:32:41.191Z,1216
2017-03-10T06:33:41.573Z,1296
2017-03-10T06:34:41.547Z,1400
2017-03-10T06:35:41.543Z,1448
2017-03-10T06:36:41.913Z,1352
2017-03-10T06:37:41.886Z,1320
2017-03-10T06:38:41.491Z,1316
2017-03-10T06:39:41.839Z,1340
2017-03-10T06:40:41.826Z,1360
2017-03-10T06:41:41.797Z,1380
2017-03-10T06:42:41.798Z,1428
2017-03-10T06:43:41.756Z,1512
2017-03-10T06:44:41.761Z,1612
2017-03-10T06:45:41.789Z,1788
2017-03-10T06:46:41.709Z,2092
2017-03-10T06:47:41.691Z,2780
2017-03-10T06:48:41.674Z,2456
2017-03-10T06:49:41.689Z,2056
2017-03-10T06:50:40.830Z,1892
2017-03-10T06:51:41.650Z,1752
2017-03-10T06:52:41.204Z,1812
2017-03-10T06:53:41.570Z,1772
2017-03-10T06:54:41.559Z,1684
2017-03-10T06:55:41.579Z,1732
2017-03-10T06:56:41.112Z,1692
2017-03-10T06:57:41.490Z,1808
2017-03-10T06:58:41.484Z,1768
2017-03-10T06:59:41.441Z,1696
2017-03-10T07:00:41.429Z,1780
2017-03-10T07:01:41.413Z,1892
2017-03-10T07:02:40.994Z,1960
2017-03-10T07:03:41.381Z,1952
2017-03-10T07:04:41.770Z,1928
2017-03-10T07:05:41.348Z,1940
2017-03-10T07:06:41.326Z,1964
2017-03-10T07:07:40.899Z,2016
2017-03-10T07:08:41.293Z,2100
2017-03-10T07:09:40.864Z,2268
2017-03-10T07:10:41.333Z,2524
2017-03-10T07:11:40.851Z,2512
2017-03-10T07:12:40.796Z,2492
2017-03-10T07:13:41.189Z,2348
2017-03-10T07:14:41.168Z,2312
2017-03-10T07:15:41.147Z,2408
2017-03-10T07:16:40.725Z,2572
2017-03-10T07:17:41.118Z,2732
2017-03-10T07:18:41.082Z,3340
2017-03-10T07:19:41.060Z,3692
2017-03-10T07:20:41.049Z,3716
2017-03-10T07:21:41.018Z,3684
2017-03-10T07:22:41.012Z,3496
2017-03-10T07:23:40.988Z,3444
2017-03-10T07:24:41.151Z,3364
2017-03-10T07:25:40.602Z,3596
2017-03-10T07:26:40.144Z,4264
2017-03-10T07:27:40.944Z,4004
2017-03-10T07:28:40.891Z,3656
2017-03-10T07:29:40.492Z,3288
2017-03-10T07:30:40.486Z,3536
2017-03-10T07:31:40.439Z,3828
2017-03-10T07:32:40.416Z,4160
2017-03-10T07:33:40.796Z,4348
2017-03-10T07:34:40.413Z,4628
2017-03-10T07:35:40.769Z,4616
2017-03-10T07:36:40.744Z,4100
2017-03-10T07:37:40.731Z,3764
2017-03-10T07:38:40.706Z,4144
2017-03-10T07:39:40.685Z,4280
2017-03-10T07:40:40.692Z,4204
2017-03-10T07:41:40.655Z,4536
2017-03-10T07:42:40.632Z,5460
2017-03-10T07:43:40.231Z,5536
2017-03-10T07:44:40.602Z,5304
2017-03-10T07:45:40.596Z,4912
2017-03-10T07:46:40.573Z,4576
2017-03-10T07:47:40.565Z,5300
2017-03-10T07:48:40.123Z,5696
2017-03-10T07:49:40.131Z,5696
2017-03-10T07:50:40.508Z,5456
2017-03-10T07:51:40.081Z,5176
2017-03-10T07:52:40.454Z,4692
2017-03-10T07:53:40.449Z,4836
2017-03-10T07:54:40.426Z,5396
2017-03-10T07:55:40.425Z,5476
2017-03-10T07:56:40.390Z,5084
2017-03-10T07:57:40.367Z,4376
2017-03-10T07:58:40.354Z,3940
2017-03-10T07:59:40.349Z,4200
2017-03-10T08:00:40.321Z,4632
2017-03-10T08:01:40.299Z,5016
2017-03-10T08:02:40.272Z,4936
2017-03-10T08:03:40.280Z,4332
2017-03-10T08:04:40.238Z,3928
2017-03-10T08:05:39.855Z,3860
2017-03-10T08:06:40.205Z,3992
2017-03-10T08:07:40.187Z,3968
2017-03-10T08:08:40.180Z,4136
2017-03-10T08:09:40.160Z,4336
2017-03-10T08:10:40.131Z,4664
2017-03-10T08:11:40.120Z,4880
2017-03-10T08:12:40.115Z,5660
2017-03-10T08:13:39.721Z,6788
2017-03-10T08:14:40.073Z,8092
2017-03-10T08:15:39.653Z,9528
2017-03-10T08:16:40.083Z,10188
2017-03-10T08:17:40.022Z,9448
2017-03-10T08:18:40.010Z,5532
2017-03-10T08:19:39.998Z,6012
2017-03-10T08:20:39.970Z,8212
2017-03-10T08:21:39.958Z,9152
2017-03-10T08:22:39.950Z,7456
2017-03-10T08:23:39.926Z,5556
2017-03-10T08:24:39.515Z,4628
2017-03-10T08:25:39.897Z,4064
2017-03-10T08:26:39.864Z,3896
2017-03-10T08:27:39.860Z,4796
2017-03-10T08:28:39.450Z,7148
2017-03-10T08:29:40.022Z,6512
2017-03-10T08:30:39.800Z,5272
2017-03-10T08:31:39.793Z,5240
2017-03-10T08:32:39.773Z,5112
2017-03-10T08:33:39.372Z,5608
2017-03-10T08:34:39.351Z,7084
2017-03-10T08:35:39.357Z,10144
2017-03-10T08:36:39.329Z,17088
2017-03-10T08:37:39.306Z,19136
2017-03-10T08:38:39.278Z,8376
2017-03-10T08:39:39.283Z,7644
2017-03-10T08:40:39.668Z,6508
2017-03-10T08:41:39.633Z,6676
2017-03-10T08:42:39.618Z,28672
2017-03-10T08:43:39.598Z,32352
2017-03-10T08:44:39.191Z,32256
2017-03-10T08:45:39.565Z,34752
2017-03-10T08:46:39.549Z,31264
2017-03-10T08:47:39.549Z,24672
2017-03-10T08:48:39.522Z,16008
2017-03-10T08:49:39.515Z,13540
2017-03-10T08:50:39.506Z,12012
2017-03-10T08:51:39.492Z,11364
2017-03-10T08:52:39.485Z,10688
2017-03-10T08:53:39.464Z,21696
2017-03-10T08:54:39.461Z,13156
2017-03-10T08:55:39.440Z,20608
2017-03-10T08:56:39.439Z,16960
2017-03-10T08:57:39.414Z,9064
2017-03-10T08:58:39.401Z,9376
2017-03-10T08:59:38.990Z,8652
2017-03-10T09:00:39.389Z,28576
2017-03-10T09:01:39.375Z,12856
2017-03-10T09:02:39.357Z,10984
2017-03-10T09:03:39.339Z,15184
2017-03-10T09:04:39.339Z,20736
2017-03-10T09:05:39.353Z,12316
2017-03-10T09:06:39.327Z,12868
2017-03-10T09:07:39.297Z,10880
2017-03-10T09:08:39.269Z,7608
2017-03-10T09:09:39.296Z,8192
2017-03-10T09:10:39.248Z,13052
2017-03-10T09:11:39.242Z,17760
2017-03-10T09:12:39.229Z,20864
2017-03-10T09:13:39.251Z,11944
2017-03-10T09:14:38.819Z,15648
2017-03-10T09:15:39.218Z,23008
2017-03-10T09:16:39.207Z,23040
2017-03-10T09:17:39.193Z,12696
2017-03-10T09:18:39.192Z,5708
2017-03-10T09:19:39.151Z,6224
2017-03-10T09:20:38.344Z,6412
2017-03-10T09:21:39.114Z,8100
2017-03-10T09:22:39.170Z,22496
2017-03-10T09:23:39.115Z,5764
2017-03-10T09:24:38.688Z,11816
2017-03-10T09:25:39.087Z,18688
2017-03-10T09:26:38.660Z,23456
2017-03-10T09:27:39.075Z,25568
2017-03-10T09:28:38.642Z,16896
2017-03-10T09:29:39.048Z,12536
2017-03-10T09:30:39.044Z,13708
2017-03-10T09:31:38.612Z,34496
2017-03-10T09:32:38.985Z,36000
2017-03-10T09:33:38.989Z,13092
2017-03-10T09:34:38.976Z,12436
2017-03-10T09:35:39.025Z,10996
2017-03-10T09:36:37.778Z,9236
2017-03-10T09:37:38.544Z,12648
2017-03-10T09:38:38.573Z,14396
2017-03-10T09:39:38.534Z,11688
2017-03-10T09:40:38.900Z,11260
2017-03-10T09:41:38.509Z,10864
2017-03-10T09:42:38.492Z,14588
2017-03-10T09:43:38.873Z,19776
2017-03-10T09:44:38.861Z,25888
2017-03-10T09:45:38.473Z,18528
2017-03-10T09:46:38.457Z,24416
2017-03-10T09:47:38.451Z,32320
2017-03-10T09:48:38.837Z,27328
2017-03-10T09:49:38.431Z,16480
2017-03-10T09:50:38.818Z,24416
2017-03-10T09:51:38.806Z,6760
2017-03-10T09:52:38.792Z,19392
2017-03-10T09:53:38.387Z,21440
2017-03-10T09:54:38.382Z,21440
2017-03-10T09:55:38.807Z,10288
2017-03-10T09:56:38.020Z,8336
2017-03-10T09:57:38.351Z,15260
2017-03-10T09:58:38.344Z,21472
2017-03-10T09:59:38.336Z,25056
2017-03-10T10:00:38.315Z,19104
2017-03-10T10:01:38.706Z,16320
2017-03-10T10:02:38.687Z,22432
2017-03-10T10:03:38.301Z,27264
2017-03-10T10:04:38.284Z,35200
2017-03-10T10:05:38.725Z,38496
2017-03-10T10:06:38.646Z,41984
2017-03-10T10:07:38.640Z,29888
2017-03-10T10:08:38.647Z,20480
2017-03-10T10:09:38.643Z,31360
2017-03-10T10:10:38.629Z,28992
2017-03-10T10:11:38.615Z,14740
2017-03-10T10:12:38.611Z,8996
2017-03-10T10:13:38.205Z,13816
2017-03-10T10:14:38.590Z,26240
2017-03-10T10:15:38.581Z,36256
2017-03-10T10:16:38.172Z,31424
2017-03-10T10:17:38.173Z,27744
2017-03-10T10:18:38.619Z,37984
2017-03-10T10:19:38.562Z,31008
2017-03-10T10:20:38.578Z,36032
2017-03-10T10:21:38.539Z,44640
2017-03-10T10:22:38.515Z,44448
2017-03-10T10:23:38.522Z,19104
2017-03-10T10:24:38.524Z,18752
2017-03-10T10:25:38.511Z,14892
2017-03-10T10:26:38.499Z,15720
2017-03-10T10:27:37.686Z,10684
2017-03-10T10:28:38.074Z,10812
2017-03-10T10:29:38.465Z,10008
2017-03-10T10:30:38.467Z,9908
2017-03-10T10:31:38.446Z,10740
2017-03-10T10:32:38.455Z,13692
2017-03-10T10:33:38.482Z,17984
2017-03-10T10:34:38.445Z,16348
2017-03-10T10:35:38.091Z,12048
2017-03-10T10:36:38.023Z,31136
2017-03-10T10:37:38.397Z,12812
2017-03-10T10:38:38.397Z,9628
2017-03-10T10:39:37.589Z,10188
2017-03-10T10:40:38.426Z,7072
2017-03-10T10:41:38.390Z,6444
2017-03-10T10:42:38.420Z,6968
2017-03-10T10:43:38.373Z,7276
2017-03-10T10:44:38.330Z,28640
2017-03-10T10:45:38.320Z,38976
2017-03-10T10:46:37.930Z,43296
2017-03-10T10:47:38.328Z,43072
2017-03-10T10:48:38.314Z,42560
2017-03-10T10:49:38.304Z,42496
2017-03-10T10:50:38.299Z,36608
2017-03-10T10:51:38.291Z,25216
2017-03-10T10:52:37.884Z,8664
2017-03-10T10:53:38.274Z,29120
2017-03-10T10:54:38.299Z,39232
2017-03-10T10:55:38.256Z,50336
2017-03-10T10:56:38.246Z,10032
2017-03-10T10:57:38.223Z,5956
2017-03-10T10:58:38.250Z,56032
2017-03-10T10:59:38.214Z,60896
2017-03-10T11:00:38.205Z,61120
2017-03-10T11:01:38.184Z,65760
2017-03-10T11:02:38.193Z,67104
2017-03-10T11:03:38.189Z,63584
2017-03-10T11:04:38.185Z,54816
2017-03-10T11:05:37.984Z,50432
2017-03-10T11:06:38.165Z,47488
2017-03-10T11:07:38.155Z,44064
2017-03-10T11:08:38.149Z,37376
2017-03-10T11:09:38.155Z,47616
2017-03-10T11:10:38.143Z,58272
2017-03-10T11:11:37.760Z,56736
2017-03-10T11:12:38.124Z,60320
2017-03-10T11:13:37.726Z,45440
2017-03-10T11:14:38.131Z,23104
2017-03-10T11:15:38.113Z,50656
2017-03-10T11:16:38.116Z,45824
2017-03-10T11:17:37.319Z,31168
2017-03-10T11:18:38.119Z,32224
2017-03-10T11:19:38.097Z,36192
2017-03-10T11:20:38.103Z,39488
2017-03-10T11:21:37.704Z,43520
2017-03-10T11:22:38.104Z,46176
2017-03-10T11:23:38.092Z,50464
2017-03-10T11:24:38.081Z,58048
2017-03-10T11:25:38.090Z,60352
2017-03-10T11:26:38.080Z,65056
2017-03-10T11:27:38.093Z,69248
2017-03-10T11:28:38.067Z,60544
2017-03-10T11:29:38.058Z,54752
2017-03-10T11:30:38.063Z,63936
2017-03-10T11:31:38.063Z,72832
2017-03-10T11:32:38.059Z,59520
2017-03-10T11:33:38.069Z,37792
2017-03-10T11:35:09.726Z,34720
2017-03-10T11:35:37.655Z,41440
2017-03-10T11:36:38.047Z,46368
2017-03-10T11:37:38.062Z,22016
2017-03-10T11:38:38.051Z,18624
2017-03-10T11:39:37.637Z,20832
2017-03-10T11:40:38.050Z,47424
2017-03-10T11:41:37.631Z,50400
2017-03-10T11:42:38.029Z,13452
2017-03-10T11:43:38.074Z,11784
2017-03-10T11:44:37.635Z,47360
2017-03-10T11:45:37.633Z,50144
2017-03-10T11:46:37.616Z,69792
2017-03-10T11:47:37.621Z,72224
2017-03-10T11:48:38.029Z,73600
2017-03-10T11:49:37.607Z,73440
2017-03-10T11:50:38.029Z,70848
2017-03-10T11:51:38.017Z,69280
2017-03-10T11:52:38.015Z,68544
2017-03-10T11:53:37.616Z,66208
2017-03-10T11:54:37.608Z,63712
2017-03-10T11:55:38.002Z,60512
2017-03-10T11:56:37.996Z,57760
2017-03-10T11:57:37.603Z,55072
2017-03-10T11:58:38.029Z,52064
2017-03-10T11:59:37.626Z,53184
2017-03-10T12:00:37.598Z,52800
2017-03-10T12:01:37.607Z,37376
2017-03-10T12:02:37.661Z,58080
2017-03-10T12:03:37.994Z,60864
2017-03-10T12:04:37.609Z,68640
2017-03-10T12:05:37.603Z,68192
2017-03-10T12:06:37.606Z,42560
2017-03-10T12:07:37.605Z,29152
2017-03-10T12:08:37.624Z,38272
2017-03-10T12:09:37.620Z,26048
2017-03-10T12:10:37.602Z,18560
2017-03-10T12:11:37.997Z,17088
2017-03-10T12:12:37.604Z,22144
2017-03-10T12:13:38.015Z,21344
2017-03-10T12:14:37.609Z,25408
2017-03-10T12:15:38.011Z,57920
2017-03-10T12:16:37.616Z,24992
2017-03-10T12:17:37.993Z,42080
2017-03-10T12:18:38.008Z,60128
2017-03-10T12:19:37.677Z,51040
2017-03-10T12:20:37.986Z,52544
2017-03-10T12:21:37.588Z,50528
2017-03-10T12:22:37.988Z,47616
2017-03-10T12:23:37.594Z,60416
2017-03-10T12:24:37.980Z,62624
2017-03-10T12:25:37.599Z,59264
2017-03-10T12:26:37.986Z,59296
2017-03-10T12:27:37.993Z,52672
2017-03-10T12:28:37.581Z,56096
2017-03-10T12:29:37.988Z,50592
2017-03-10T12:30:37.588Z,46304
2017-03-10T12:31:37.581Z,49472
2017-03-10T12:32:38.000Z,54336
2017-03-10T12:33:37.571Z,52704
2017-03-10T12:34:37.596Z,50080
2017-03-10T12:35:37.605Z,44416
2017-03-10T12:36:37.666Z,45792
2017-03-10T12:37:37.215Z,48448
2017-03-10T12:38:37.598Z,44064
2017-03-10T12:39:37.594Z,37888
2017-03-10T12:40:37.972Z,35360
2017-03-10T12:41:37.594Z,35360
2017-03-10T12:42:37.594Z,35872
2017-03-10T12:43:37.988Z,33088
2017-03-10T12:44:37.572Z,34848
2017-03-10T12:45:37.569Z,33088
2017-03-10T12:46:37.558Z,33984
2017-03-10T12:47:37.571Z,30304
2017-03-10T12:48:37.572Z,32064
2017-03-10T12:49:37.982Z,33120
2017-03-10T12:50:37.575Z,35840
2017-03-10T12:51:37.564Z,33984
2017-03-10T12:52:37.557Z,29856
2017-03-10T12:53:37.944Z,24128
2017-03-10T12:54:37.945Z,21536
2017-03-10T12:55:37.951Z,19808
2017-03-10T12:56:37.946Z,19360
2017-03-10T12:57:37.936Z,19648
2017-03-10T12:58:37.929Z,20992
2017-03-10T12:59:37.932Z,22592
2017-03-10T13:00:37.923Z,23456
2017-03-10T13:01:38.697Z,27808
2017-03-10T13:02:37.923Z,28032
2017-03-10T13:03:37.935Z,31648
2017-03-10T13:04:37.912Z,32704
2017-03-10T13:05:38.134Z,33024
2017-03-10T13:06:37.532Z,31456
2017-03-10T13:07:38.119Z,30688
2017-03-10T13:08:37.924Z,27712
2017-03-10T13:09:37.907Z,24160
2017-03-10T13:10:37.910Z,23136
2017-03-10T13:11:37.894Z,22624
2017-03-10T13:12:37.478Z,24448
2017-03-10T13:13:37.874Z,24960
2017-03-10T13:14:37.883Z,25792
2017-03-10T13:15:37.482Z,25312
2017-03-10T13:16:37.860Z,26496
2017-03-10T13:17:37.860Z,26624
2017-03-10T13:18:37.452Z,25984
2017-03-10T13:19:37.856Z,25568
2017-03-10T13:20:37.452Z,23136
2017-03-10T13:21:37.877Z,20992
2017-03-10T13:22:37.841Z,20992
2017-03-10T13:23:37.834Z,21376
2017-03-10T13:24:37.868Z,23008
2017-03-10T13:25:37.440Z,23456
2017-03-10T13:26:37.822Z,23232
2017-03-10T13:27:37.806Z,22496
2017-03-10T13:28:37.799Z,20992
2017-03-10T13:29:37.805Z,20608
2017-03-10T13:30:37.811Z,19904
2017-03-10T13:31:37.803Z,19424
2017-03-10T13:32:37.788Z,18624
2017-03-10T13:33:37.438Z,19360
2017-03-10T13:34:37.769Z,20576
2017-03-10T13:35:37.379Z,21920
2017-03-10T13:36:37.776Z,23520
2017-03-10T13:37:37.753Z,22592
2017-03-10T13:38:37.742Z,21440
2017-03-10T13:39:37.755Z,20928
2017-03-10T13:40:37.731Z,24640
2017-03-10T13:41:37.720Z,24224
2017-03-10T13:42:37.748Z,24576
2017-03-10T13:43:37.729Z,33376
2017-03-10T13:44:37.748Z,28384